sensor_id;sensor_type;location;lat;lon;timestamp;pressure;altitude;pressure_sealevel;temperature
77728;BMP280;66894;51.570;7.000;2023-02-28T16:19:58;103324.47;;;20.07
77728;BMP280;66894;51.570;7.000;2023-02-28T16:22:24;103328.09;;;20.03
77728;BMP280;66894;51.570;7.000;2023-02-28T16:24:50;103323.09;;;20.02
77728;BMP280;66894;51.570;7.000;2023-02-28T16:27:22;103329.19;;;20.02
77728;BMP280;66894;51.570;7.000;2023-02-28T16:30:01;103327.22;;;19.91
77728;BMP280;66894;51.570;7.000;2023-02-28T17:07:52;103324.28;;;13.17
77728;BMP280;66894;51.570;7.000;2023-02-28T17:10:23;103336.81;;;10.35
77728;BMP280;66894;51.570;7.000;2023-02-28T17:12:52;103340.72;;;8.07
77728;BMP280;66894;51.570;7.000;2023-02-28T17:15:23;103363.97;;;7.36
77728;BMP280;66894;51.570;7.000;2023-02-28T17:17:49;103360.47;;;6.90
77728;BMP280;66894;51.570;7.000;2023-02-28T17:20:20;103372.41;;;5.86
77728;BMP280;66894;51.570;7.000;2023-02-28T17:22:48;103384.81;;;4.88
77728;BMP280;66894;51.570;7.000;2023-02-28T18:20:39;103432.47;;;0.91
77728;BMP280;66894;51.570;7.000;2023-02-28T18:23:05;103435.25;;;0.75
77728;BMP280;66894;51.570;7.000;2023-02-28T18:25:31;103429.09;;;0.62
77728;BMP280;66894;51.570;7.000;2023-02-28T18:27:56;103422.91;;;0.48
77728;BMP280;66894;51.570;7.000;2023-02-28T18:30:27;103431.47;;;0.49
77728;BMP280;66894;51.570;7.000;2023-02-28T18:32:58;103437.88;;;0.53
77728;BMP280;66894;51.570;7.000;2023-02-28T18:35:27;103434.88;;;0.49
77728;BMP280;66894;51.570;7.000;2023-02-28T18:38:03;103432.81;;;0.45
77728;BMP280;66894;51.570;7.000;2023-02-28T18:40:55;103433.88;;;0.36
77728;BMP280;66894;51.570;7.000;2023-02-28T18:43:30;103436.72;;;0.27
77728;BMP280;66894;51.570;7.000;2023-02-28T18:46:03;103430.75;;;0.26
77728;BMP280;66894;51.570;7.000;2023-02-28T18:48:31;103431.53;;;0.27
77728;BMP280;66894;51.570;7.000;2023-02-28T18:50:57;103435.66;;;0.21
77728;BMP280;66894;51.570;7.000;2023-02-28T18:53:22;103431.69;;;0.11
77728;BMP280;66894;51.570;7.000;2023-02-28T18:55:48;103427.91;;;-0.01
77728;BMP280;66894;51.570;7.000;2023-02-28T18:58:13;103431.53;;;-0.10
77728;BMP280;66894;51.570;7.000;2023-02-28T19:00:39;103430.25;;;-0.14
77728;BMP280;66894;51.570;7.000;2023-02-28T19:03:05;103433.00;;;-0.15
77728;BMP280;66894;51.570;7.000;2023-02-28T19:05:31;103430.94;;;-0.20
77728;BMP280;66894;51.570;7.000;2023-02-28T19:08:00;103432.09;;;-0.22
77728;BMP280;66894;51.570;7.000;2023-02-28T19:10:26;103443.09;;;-0.28
77728;BMP280;66894;51.570;7.000;2023-02-28T19:12:52;103436.19;;;-0.36
77728;BMP280;66894;51.570;7.000;2023-02-28T19:15:18;103444.44;;;-0.40
77728;BMP280;66894;51.570;7.000;2023-02-28T19:17:44;103445.13;;;-0.46
77728;BMP280;66894;51.570;7.000;2023-02-28T19:20:10;103450.28;;;-0.46
77728;BMP280;66894;51.570;7.000;2023-02-28T19:22:37;103442.06;;;-0.49
77728;BMP280;66894;51.570;7.000;2023-02-28T19:25:04;103447.06;;;-0.48
77728;BMP280;66894;51.570;7.000;2023-02-28T19:27:31;103448.38;;;-0.52
77728;BMP280;66894;51.570;7.000;2023-02-28T19:30:00;103453.25;;;-0.57
77728;BMP280;66894;51.570;7.000;2023-02-28T19:32:25;103450.19;;;-0.60
77728;BMP280;66894;51.570;7.000;2023-02-28T19:34:51;103454.88;;;-0.64
77728;BMP280;66894;51.570;7.000;2023-02-28T19:37:17;103448.75;;;-0.63
77728;BMP280;66894;51.570;7.000;2023-02-28T19:39:43;103448.09;;;-0.57
77728;BMP280;66894;51.570;7.000;2023-02-28T19:42:14;103451.16;;;-0.61
77728;BMP280;66894;51.570;7.000;2023-02-28T19:44:42;103455.06;;;-0.65
77728;BMP280;66894;51.570;7.000;2023-02-28T19:47:12;103451.03;;;-0.68
77728;BMP280;66894;51.570;7.000;2023-02-28T19:49:37;103446.84;;;-0.69
77728;BMP280;66894;51.570;7.000;2023-02-28T19:52:04;103451.06;;;-0.75
77728;BMP280;66894;51.570;7.000;2023-02-28T19:54:31;103450.75;;;-0.80
77728;BMP280;66894;51.570;7.000;2023-02-28T19:56:59;103444.34;;;-0.84
77728;BMP280;66894;51.570;7.000;2023-02-28T19:59:27;103450.94;;;-0.90
77728;BMP280;66894;51.570;7.000;2023-02-28T20:01:53;103462.06;;;-0.89
77728;BMP280;66894;51.570;7.000;2023-02-28T20:04:25;103462.25;;;-0.91
77728;BMP280;66894;51.570;7.000;2023-02-28T20:06:52;103459.19;;;-0.94
77728;BMP280;66894;51.570;7.000;2023-02-28T20:09:18;103454.38;;;-0.97
77728;BMP280;66894;51.570;7.000;2023-02-28T20:11:45;103457.28;;;-1.00
77728;BMP280;66894;51.570;7.000;2023-02-28T20:14:12;103461.00;;;-1.03
77728;BMP280;66894;51.570;7.000;2023-02-28T20:16:39;103458.25;;;-1.09
77728;BMP280;66894;51.570;7.000;2023-02-28T20:19:05;103459.72;;;-1.14
77728;BMP280;66894;51.570;7.000;2023-02-28T20:21:31;103463.78;;;-1.12
77728;BMP280;66894;51.570;7.000;2023-02-28T20:23:57;103468.75;;;-1.10
77728;BMP280;66894;51.570;7.000;2023-02-28T20:26:22;103460.84;;;-1.17
77728;BMP280;66894;51.570;7.000;2023-02-28T20:28:48;103462.34;;;-1.22
77728;BMP280;66894;51.570;7.000;2023-02-28T20:31:17;103462.50;;;-1.24
77728;BMP280;66894;51.570;7.000;2023-02-28T20:33:48;103459.28;;;-1.26
77728;BMP280;66894;51.570;7.000;2023-02-28T20:36:16;103461.38;;;-1.29
77728;BMP280;66894;51.570;7.000;2023-02-28T20:38:48;103463.94;;;-1.29
77728;BMP280;66894;51.570;7.000;2023-02-28T20:41:16;103460.56;;;-1.30
77728;BMP280;66894;51.570;7.000;2023-02-28T20:43:41;103455.06;;;-1.35
77728;BMP280;66894;51.570;7.000;2023-02-28T20:46:08;103462.31;;;-1.38
77728;BMP280;66894;51.570;7.000;2023-02-28T20:48:34;103472.31;;;-1.43
77728;BMP280;66894;51.570;7.000;2023-02-28T20:51:02;103461.53;;;-1.46
77728;BMP280;66894;51.570;7.000;2023-02-28T20:53:30;103458.00;;;-1.45
77728;BMP280;66894;51.570;7.000;2023-02-28T20:55:59;103459.28;;;-1.49
77728;BMP280;66894;51.570;7.000;2023-02-28T20:58:30;103455.22;;;-1.44
77728;BMP280;66894;51.570;7.000;2023-02-28T21:01:10;103456.84;;;-1.43
77728;BMP280;66894;51.570;7.000;2023-02-28T21:03:45;103446.06;;;-1.46
77728;BMP280;66894;51.570;7.000;2023-02-28T21:06:18;103448.63;;;-1.46
77728;BMP280;66894;51.570;7.000;2023-02-28T21:08:47;103443.19;;;-1.51
77728;BMP280;66894;51.570;7.000;2023-02-28T21:11:17;103458.16;;;-1.55
77728;BMP280;66894;51.570;7.000;2023-02-28T21:13:56;103465.56;;;-1.52
77728;BMP280;66894;51.570;7.000;2023-02-28T21:16:25;103450.13;;;-1.52
77728;BMP280;66894;51.570;7.000;2023-02-28T21:18:53;103456.06;;;-1.51
77728;BMP280;66894;51.570;7.000;2023-02-28T21:21:22;103455.25;;;-1.52
77728;BMP280;66894;51.570;7.000;2023-02-28T21:23:49;103439.47;;;-1.57
77728;BMP280;66894;51.570;7.000;2023-02-28T21:26:19;103453.81;;;-1.62
77728;BMP280;66894;51.570;7.000;2023-02-28T21:28:54;103449.63;;;-1.63
77728;BMP280;66894;51.570;7.000;2023-02-28T21:31:27;103458.31;;;-1.64
77728;BMP280;66894;51.570;7.000;2023-02-28T21:33:57;103464.78;;;-1.60
77728;BMP280;66894;51.570;7.000;2023-02-28T21:36:26;103468.16;;;-1.60
77728;BMP280;66894;51.570;7.000;2023-02-28T21:38:59;103472.81;;;-1.63
77728;BMP280;66894;51.570;7.000;2023-02-28T21:41:29;103460.72;;;-1.63
77728;BMP280;66894;51.570;7.000;2023-02-28T21:43:56;103470.56;;;-1.66
77728;BMP280;66894;51.570;7.000;2023-02-28T21:46:23;103468.63;;;-1.72
77728;BMP280;66894;51.570;7.000;2023-02-28T21:48:54;103459.31;;;-1.73
77728;BMP280;66894;51.570;7.000;2023-02-28T21:51:29;103469.75;;;-1.75
77728;BMP280;66894;51.570;7.000;2023-02-28T21:53:59;103464.28;;;-1.79
77728;BMP280;66894;51.570;7.000;2023-02-28T21:56:30;103472.44;;;-1.84
77728;BMP280;66894;51.570;7.000;2023-02-28T21:58:59;103467.78;;;-1.88
77728;BMP280;66894;51.570;7.000;2023-02-28T22:01:30;103466.31;;;-1.91
77728;BMP280;66894;51.570;7.000;2023-02-28T22:04:00;103471.63;;;-1.92
77728;BMP280;66894;51.570;7.000;2023-02-28T22:06:31;103473.59;;;-1.94
77728;BMP280;66894;51.570;7.000;2023-02-28T22:09:02;103465.38;;;-1.98
77728;BMP280;66894;51.570;7.000;2023-02-28T22:11:31;103468.25;;;-1.93
77728;BMP280;66894;51.570;7.000;2023-02-28T22:13:59;103462.31;;;-1.93
77728;BMP280;66894;51.570;7.000;2023-02-28T22:16:28;103476.97;;;-1.94
77728;BMP280;66894;51.570;7.000;2023-02-28T22:18:55;103466.66;;;-1.94
77728;BMP280;66894;51.570;7.000;2023-02-28T22:21:22;103466.16;;;-1.97
77728;BMP280;66894;51.570;7.000;2023-02-28T22:23:49;103462.47;;;-2.03
77728;BMP280;66894;51.570;7.000;2023-02-28T22:26:18;103456.97;;;-2.08
77728;BMP280;66894;51.570;7.000;2023-02-28T22:28:46;103467.28;;;-2.08
77728;BMP280;66894;51.570;7.000;2023-02-28T22:31:14;103464.53;;;-2.06
77728;BMP280;66894;51.570;7.000;2023-02-28T22:34:04;103467.44;;;-2.09
77728;BMP280;66894;51.570;7.000;2023-02-28T22:36:33;103481.28;;;-2.10
77728;BMP280;66894;51.570;7.000;2023-02-28T22:38:59;103477.25;;;-2.12
77728;BMP280;66894;51.570;7.000;2023-02-28T22:41:26;103471.59;;;-2.16
77728;BMP280;66894;51.570;7.000;2023-02-28T22:43:58;103473.38;;;-2.16
77728;BMP280;66894;51.570;7.000;2023-02-28T22:46:29;103479.16;;;-2.14
77728;BMP280;66894;51.570;7.000;2023-02-28T22:48:58;103487.53;;;-2.12
77728;BMP280;66894;51.570;7.000;2023-02-28T22:51:26;103482.53;;;-2.14
77728;BMP280;66894;51.570;7.000;2023-02-28T22:53:53;103480.78;;;-2.13
77728;BMP280;66894;51.570;7.000;2023-02-28T22:56:22;103474.34;;;-2.17
77728;BMP280;66894;51.570;7.000;2023-02-28T22:58:53;103479.78;;;-2.20
77728;BMP280;66894;51.570;7.000;2023-02-28T23:01:27;103477.53;;;-2.23
77728;BMP280;66894;51.570;7.000;2023-02-28T23:03:55;103487.97;;;-2.25
77728;BMP280;66894;51.570;7.000;2023-02-28T23:06:23;103473.66;;;-2.27
77728;BMP280;66894;51.570;7.000;2023-02-28T23:08:55;103482.31;;;-2.28
77728;BMP280;66894;51.570;7.000;2023-02-28T23:11:29;103480.25;;;-2.25
77728;BMP280;66894;51.570;7.000;2023-02-28T23:13:59;103481.22;;;-2.26
77728;BMP280;66894;51.570;7.000;2023-02-28T23:19:04;103486.47;;;-2.35
77728;BMP280;66894;51.570;7.000;2023-02-28T23:21:33;103488.72;;;-2.40
77728;BMP280;66894;51.570;7.000;2023-02-28T23:24:01;103478.44;;;-2.40
77728;BMP280;66894;51.570;7.000;2023-02-28T23:26:31;103478.59;;;-2.42
77728;BMP280;66894;51.570;7.000;2023-02-28T23:28:57;103483.72;;;-2.42
77728;BMP280;66894;51.570;7.000;2023-02-28T23:31:23;103474.72;;;-2.46
77728;BMP280;66894;51.570;7.000;2023-02-28T23:33:48;103487.75;;;-2.47
77728;BMP280;66894;51.570;7.000;2023-02-28T23:36:15;103476.34;;;-2.45
77728;BMP280;66894;51.570;7.000;2023-02-28T23:38:45;103473.44;;;-2.42
77728;BMP280;66894;51.570;7.000;2023-02-28T23:41:13;103462.81;;;-2.47
77728;BMP280;66894;51.570;7.000;2023-02-28T23:43:40;103465.69;;;-2.49
77728;BMP280;66894;51.570;7.000;2023-02-28T23:46:08;103468.44;;;-2.51
77728;BMP280;66894;51.570;7.000;2023-02-28T23:48:35;103457.19;;;-2.42
77728;BMP280;66894;51.570;7.000;2023-02-28T23:51:11;103450.59;;;-2.45
77728;BMP280;66894;51.570;7.000;2023-02-28T23:53:43;103462.31;;;-2.50
77728;BMP280;66894;51.570;7.000;2023-02-28T23:56:14;103460.06;;;-2.53
77728;BMP280;66894;51.570;7.000;2023-02-28T23:58:44;103470.66;;;-2.56
